createdAt,value
2018-12-19T00:02:25.346Z,26.80
2018-12-19T00:04:57.372Z,26.77
2018-12-19T00:07:27.895Z,32.87
2018-12-19T00:09:56.374Z,28.77
2018-12-19T00:12:24.854Z,35.10
2018-12-19T00:14:53.961Z,27.77
2018-12-19T00:17:24.616Z,30.23
2018-12-19T00:19:53.517Z,29.63
2018-12-19T00:22:22.497Z,29.83
2018-12-19T00:24:51.142Z,38.33
2018-12-19T00:27:21.878Z,27.97
2018-12-19T00:29:52.406Z,27.00
2018-12-19T00:32:23.139Z,30.47
2018-12-19T00:34:53.674Z,32.10
2018-12-19T00:37:22.140Z,31.00
2018-12-19T00:39:50.625Z,32.37
2018-12-19T00:42:19.311Z,34.90
2018-12-19T00:44:47.798Z,34.10
2018-12-19T00:47:16.067Z,36.30
2018-12-19T00:49:44.545Z,50.80
2018-12-19T00:52:13.233Z,67.30
2018-12-19T00:54:41.711Z,39.33
2018-12-19T00:57:10.193Z,40.50
2018-12-19T00:59:38.670Z,40.57
2018-12-19T01:02:07.142Z,36.23
2018-12-19T01:04:35.834Z,38.90
2018-12-19T01:07:04.514Z,35.47
2018-12-19T01:09:33.204Z,41.03
2018-12-19T01:12:01.684Z,34.63
2018-12-19T01:14:30.368Z,44.13
2018-12-19T01:16:58.842Z,63.30
2018-12-19T01:19:27.534Z,51.70
2018-12-19T01:21:56.212Z,51.53
2018-12-19T01:24:24.694Z,42.77
2018-12-19T01:26:53.177Z,56.10
2018-12-19T01:29:21.445Z,53.20
2018-12-19T01:31:49.930Z,61.87
2018-12-19T01:34:18.405Z,41.27
2018-12-19T01:36:46.885Z,39.47
2018-12-19T01:39:22.335Z,37.23
2018-12-19T01:41:46.304Z,33.13
2018-12-19T01:44:14.783Z,37.30
2018-12-19T01:46:43.262Z,36.30
2018-12-19T01:49:11.740Z,39.73
2018-12-19T01:51:40.219Z,41.57
2018-12-19T01:54:08.704Z,37.90
2018-12-19T01:56:37.179Z,40.60
2018-12-19T01:59:05.666Z,44.77
2018-12-19T02:01:33.869Z,40.80
2018-12-19T02:04:02.823Z,42.37
2018-12-19T02:06:31.304Z,38.80
2018-12-19T02:08:59.787Z,42.13
2018-12-19T02:11:28.466Z,38.23
2018-12-19T02:13:56.740Z,41.20
2018-12-19T02:16:25.253Z,41.70
2018-12-19T02:18:53.853Z,40.83
2018-12-19T02:21:22.390Z,36.57
2018-12-19T02:23:51.076Z,41.77
2018-12-19T02:26:19.753Z,38.47
2018-12-19T02:28:48.241Z,43.37
2018-12-19T02:31:16.728Z,36.83
2018-12-19T02:33:45.190Z,44.57
2018-12-19T02:36:13.680Z,39.90
2018-12-19T02:38:42.560Z,43.37
2018-12-19T02:41:11.251Z,43.13
2018-12-19T02:43:39.731Z,40.17
2018-12-19T02:46:08.210Z,40.73
2018-12-19T02:48:36.624Z,38.33
2018-12-19T02:51:05.162Z,43.40
2018-12-19T02:53:33.641Z,37.00
2018-12-19T02:56:02.128Z,37.80
2018-12-19T02:58:30.610Z,38.30
2018-12-19T03:00:59.084Z,38.17
2018-12-19T03:03:27.404Z,42.67
2018-12-19T03:05:55.943Z,43.30
2018-12-19T03:08:24.518Z,42.80
2018-12-19T03:10:53.291Z,44.73
2018-12-19T03:13:21.688Z,41.33
2018-12-19T03:15:50.170Z,44.30
2018-12-19T03:18:18.876Z,44.10
2018-12-19T03:20:47.336Z,46.77
2018-12-19T03:23:17.162Z,43.90
2018-12-19T03:25:45.721Z,41.13
2018-12-19T03:28:15.847Z,47.63
2018-12-19T03:30:44.527Z,47.23
2018-12-19T03:33:13.724Z,44.70
2018-12-19T03:35:42.305Z,41.80
2018-12-19T03:38:12.759Z,41.10
2018-12-19T03:40:41.316Z,48.23
2018-12-19T03:43:09.792Z,44.30
2018-12-19T03:45:38.267Z,48.13
2018-12-19T03:48:08.602Z,44.17
2018-12-19T03:50:37.093Z,44.83
2018-12-19T03:53:05.624Z,47.07
2018-12-19T03:55:34.243Z,47.40
2018-12-19T03:58:02.515Z,43.00
2018-12-19T04:00:30.995Z,39.23
2018-12-19T04:02:59.488Z,43.83
2018-12-19T04:05:27.758Z,41.17
2018-12-19T04:07:56.429Z,42.30
2018-12-19T04:10:25.116Z,42.83
2018-12-19T04:12:53.598Z,38.73
2018-12-19T04:15:22.201Z,43.47
2018-12-19T04:17:50.969Z,40.43
2018-12-19T04:20:19.448Z,46.23
2018-12-19T04:22:48.284Z,43.13
2018-12-19T04:25:16.814Z,43.97
2018-12-19T04:27:45.496Z,44.23
2018-12-19T04:30:13.850Z,43.67
2018-12-19T04:32:42.679Z,44.40
2018-12-19T04:35:11.142Z,42.60
2018-12-19T04:37:40.873Z,44.83
2018-12-19T04:40:09.333Z,39.83
2018-12-19T04:42:38.016Z,41.93
2018-12-19T04:45:06.700Z,38.57
2018-12-19T04:47:35.181Z,41.37
2018-12-19T04:50:04.528Z,44.10
2018-12-19T04:52:33.169Z,37.57
2018-12-19T04:55:01.864Z,42.97
2018-12-19T04:57:30.425Z,42.50
2018-12-19T04:59:59.012Z,41.33
2018-12-19T05:02:27.488Z,36.27
2018-12-19T05:04:55.968Z,36.97
2018-12-19T05:07:24.856Z,27.37
2018-12-19T05:09:53.338Z,25.90
2018-12-19T05:12:22.029Z,31.33
2018-12-19T05:14:51.122Z,32.10
2018-12-19T05:17:20.034Z,34.90
2018-12-19T05:19:49.517Z,37.33
2018-12-19T05:22:18.578Z,34.87
2018-12-19T05:24:47.497Z,39.13
2018-12-19T05:27:16.390Z,38.07
2018-12-19T05:29:45.894Z,38.23
2018-12-19T05:32:15.193Z,38.73
2018-12-19T05:34:44.287Z,42.90
2018-12-19T05:37:13.789Z,39.73
2018-12-19T05:39:42.983Z,42.20
2018-12-19T05:42:11.974Z,32.40
2018-12-19T05:44:40.662Z,43.50
2018-12-19T05:47:10.613Z,37.60
2018-12-19T05:49:40.076Z,40.77
2018-12-19T05:52:09.177Z,38.97
2018-12-19T05:54:39.702Z,37.10
2018-12-19T05:57:08.794Z,47.13
2018-12-19T05:59:37.648Z,42.00
2018-12-19T06:02:06.366Z,41.40
2018-12-19T06:04:37.116Z,36.60
2018-12-19T06:07:07.209Z,39.10
2018-12-19T06:09:35.899Z,42.53
2018-12-19T06:12:04.169Z,41.13
2018-12-19T06:14:33.306Z,39.50
2018-12-19T06:17:01.744Z,41.27
2018-12-19T06:19:30.429Z,47.00
2018-12-19T06:21:58.702Z,42.20
2018-12-19T06:24:27.396Z,42.63
2018-12-19T06:26:56.042Z,39.93
2018-12-19T06:29:24.558Z,40.83
2018-12-19T06:31:53.034Z,38.97
2018-12-19T06:34:21.614Z,42.07
2018-12-19T06:36:50.192Z,39.57
2018-12-19T06:39:19.198Z,39.90
2018-12-19T06:41:47.775Z,44.27
2018-12-19T06:44:16.085Z,39.77
2018-12-19T06:46:44.941Z,39.70
2018-12-19T06:49:13.474Z,39.47
2018-12-19T06:51:42.315Z,38.50
2018-12-19T06:54:10.994Z,37.53
2018-12-19T06:56:39.468Z,44.27
2018-12-19T06:59:08.147Z,39.50
2018-12-19T07:01:36.432Z,41.73
2018-12-19T07:04:04.904Z,53.87
2018-12-19T07:06:33.792Z,42.97
2018-12-19T07:09:06.067Z,43.60
2018-12-19T07:11:34.854Z,38.73
2018-12-19T07:14:03.719Z,41.87
2018-12-19T07:17:20.148Z,41.80
2018-12-19T07:19:48.423Z,37.70
2018-12-19T07:22:18.530Z,30.30
2018-12-19T07:24:47.216Z,22.63
2018-12-19T07:27:15.710Z,21.60
2018-12-19T07:29:44.393Z,20.27
2018-12-19T07:32:13.908Z,19.50
2018-12-19T07:34:49.513Z,33.40
2018-12-19T07:37:24.409Z,29.10
2018-12-19T07:40:00.095Z,29.27
2018-12-19T07:43:44.870Z,35.57
2018-12-19T07:46:19.910Z,34.90
2018-12-19T07:48:52.794Z,35.23
2018-12-19T07:51:25.305Z,36.20
2018-12-19T07:53:57.181Z,36.43
2018-12-19T07:56:31.698Z,39.07
2018-12-19T07:59:01.795Z,38.13
2018-12-19T08:01:36.461Z,36.90
2018-12-19T08:04:11.318Z,35.93
2018-12-19T08:06:43.589Z,34.80
2018-12-19T08:09:18.419Z,31.03
2018-12-19T08:11:48.680Z,32.40
2018-12-19T08:14:20.882Z,34.77
2018-12-19T08:16:55.461Z,37.47
2018-12-19T08:19:27.323Z,59.27
2018-12-19T08:22:01.885Z,47.20
2018-12-19T08:24:32.061Z,34.13
2018-12-19T08:27:07.018Z,37.00
2018-12-19T08:29:39.313Z,34.33
2018-12-19T08:32:09.573Z,39.27
2018-12-19T08:34:44.109Z,35.70
2018-12-19T08:37:15.738Z,47.10
2018-12-19T08:39:47.549Z,39.97
2018-12-19T08:42:21.946Z,36.23
2018-12-19T08:44:54.223Z,38.53
2018-12-19T08:47:25.970Z,41.17
2018-12-19T08:49:55.973Z,37.40
2018-12-19T08:52:27.710Z,38.10
2018-12-19T08:54:59.918Z,38.40
2018-12-19T08:57:34.340Z,43.00
2018-12-19T09:00:09.074Z,40.37
2018-12-19T09:02:40.522Z,39.40
2018-12-19T09:05:12.767Z,43.03
2018-12-19T09:07:42.993Z,36.53
2018-12-19T09:10:14.708Z,37.47
2018-12-19T09:12:46.930Z,53.27
2018-12-19T09:15:27.860Z,45.83
2018-12-19T09:18:00.013Z,40.17
2018-12-19T09:20:34.715Z,39.40
2018-12-19T09:23:06.966Z,41.73
2018-12-19T09:25:36.933Z,36.43
2018-12-19T09:28:09.216Z,39.13
2018-12-19T09:30:40.892Z,39.80
2018-12-19T09:33:12.611Z,39.20
2018-12-19T09:35:46.917Z,32.53
2018-12-19T09:38:19.148Z,35.33
2018-12-19T09:40:50.766Z,36.43
2018-12-19T09:43:22.711Z,41.07
2018-12-19T09:45:57.425Z,33.47
2018-12-19T09:48:27.897Z,32.40
2018-12-19T09:50:59.769Z,31.13
2018-12-19T09:53:30.149Z,33.13
2018-12-19T09:56:04.628Z,32.70
2018-12-19T09:58:36.867Z,33.23
2018-12-19T10:01:11.590Z,45.17
2018-12-19T10:03:41.735Z,46.70
2018-12-19T10:06:13.650Z,40.33
2018-12-19T10:08:48.167Z,37.00
2018-12-19T10:11:23.143Z,34.90
2018-12-19T10:13:53.398Z,41.17
2018-12-19T10:16:25.158Z,38.03
2018-12-19T10:18:57.488Z,38.83
2018-12-19T10:21:31.998Z,36.23
2018-12-19T10:24:06.977Z,36.20
2018-12-19T10:26:42.386Z,36.90
2018-12-19T10:29:12.543Z,41.70
2018-12-19T10:31:47.043Z,38.07
2018-12-19T10:34:21.937Z,39.83
2018-12-19T10:36:52.154Z,36.17
2018-12-19T10:39:24.303Z,38.50
2018-12-19T10:41:58.580Z,34.77
2018-12-19T10:44:30.740Z,34.33
2018-12-19T10:47:02.405Z,33.93
2018-12-19T10:49:34.344Z,35.87
2018-12-19T10:52:05.941Z,36.87
2018-12-19T10:54:40.520Z,30.50
2018-12-19T10:57:12.462Z,31.87
2018-12-19T11:15:36.965Z,40.20
2018-12-19T11:18:07.134Z,44.67
2018-12-19T11:20:41.670Z,45.87
2018-12-19T11:23:13.981Z,49.20
2018-12-19T11:25:48.517Z,48.60
2018-12-19T11:28:20.745Z,43.50
2018-12-19T11:46:45.438Z,25.67
2018-12-19T11:49:15.583Z,27.13
2018-12-19T11:51:50.006Z,31.23
2018-12-19T11:54:22.486Z,31.00
2018-12-19T11:56:54.639Z,18.27
2018-12-19T11:59:24.577Z,31.47
2018-12-19T12:17:35.386Z,37.87
2018-12-19T12:20:08.285Z,33.03
2018-12-19T12:22:42.879Z,40.87
2018-12-19T12:25:13.090Z,25.37
2018-12-19T12:27:44.964Z,26.47
2018-12-19T12:30:16.676Z,17.60
2018-12-19T12:32:51.416Z,12.07
2018-12-19T12:35:23.227Z,11.90
2018-12-19T12:37:55.218Z,8.87
2018-12-19T12:40:26.913Z,8.57
2018-12-19T12:42:56.903Z,7.60
2018-12-19T12:45:29.027Z,10.53
2018-12-19T12:48:00.833Z,10.97
2018-12-19T12:50:35.438Z,8.60
2018-12-19T12:53:05.663Z,11.00
2018-12-19T12:55:38.458Z,20.00
2018-12-19T12:58:13.151Z,20.93
2018-12-19T13:00:45.457Z,31.83
2018-12-19T13:31:48.641Z,44.50
2018-12-19T13:34:23.238Z,38.07
2018-12-19T13:36:53.233Z,38.30
2018-12-19T13:39:27.715Z,41.30
2018-12-19T13:42:05.566Z,40.80
2018-12-19T13:44:36.959Z,37.63
2018-12-19T13:47:12.004Z,37.47
2018-12-19T13:49:44.401Z,25.13
2018-12-19T13:52:14.322Z,23.60
2018-12-19T13:54:46.418Z,24.10
2018-12-19T13:57:50.549Z,29.10
2018-12-19T14:00:21.434Z,37.57
2018-12-19T14:02:49.982Z,57.60
2018-12-19T14:05:18.594Z,55.33
2018-12-19T14:07:47.137Z,44.20
2018-12-19T14:10:15.768Z,38.10
2018-12-19T14:12:47.504Z,37.73
2018-12-19T14:15:19.879Z,39.83
2018-12-19T14:17:54.495Z,37.50
2018-12-19T14:20:33.381Z,40.23
2018-12-19T14:23:03.801Z,38.20
2018-12-19T14:25:38.360Z,38.57
2018-12-19T14:28:24.117Z,33.00
2018-12-19T14:30:59.140Z,31.00
2018-12-19T14:33:33.902Z,36.27
2018-12-19T14:36:05.983Z,44.47
2018-12-19T14:38:40.358Z,43.43
2018-12-19T14:41:15.147Z,23.47
2018-12-19T14:46:46.508Z,27.17
2018-12-19T14:49:15.047Z,30.47
2018-12-19T14:51:43.780Z,18.63
2018-12-19T14:54:12.330Z,15.47
2018-12-19T14:56:40.963Z,14.80
2018-12-19T14:59:11.372Z,14.20
2018-12-19T15:01:39.973Z,18.87
2018-12-19T15:04:08.605Z,18.03
2018-12-19T15:06:37.220Z,22.17
2018-12-19T15:09:06.734Z,21.93
2018-12-19T15:11:36.778Z,22.67
2018-12-19T15:14:15.077Z,16.13
2018-12-19T15:16:45.379Z,19.00
2018-12-19T15:19:19.772Z,13.93
2018-12-19T15:21:49.947Z,13.73
2018-12-19T15:24:21.804Z,17.87
2018-12-19T15:26:56.199Z,15.10
2018-12-19T15:29:28.600Z,19.17
2018-12-19T15:32:02.972Z,19.73
2018-12-19T15:34:37.591Z,25.20
2018-12-19T15:37:12.361Z,22.17
2018-12-19T15:39:44.383Z,21.83
2018-12-19T15:42:18.873Z,19.47
2018-12-19T15:44:53.693Z,19.40
2018-12-19T15:47:25.910Z,18.40
2018-12-19T15:49:58.024Z,18.03
2018-12-19T15:52:32.728Z,19.10
2018-12-19T15:55:02.936Z,32.80
2018-12-19T15:57:37.634Z,21.20
2018-12-19T16:00:15.420Z,16.70
2018-12-19T16:02:49.988Z,19.03
2018-12-19T16:05:28.588Z,15.77
2018-12-19T16:08:03.316Z,17.57
2018-12-19T16:10:33.449Z,12.13
2018-12-19T16:13:07.990Z,13.83
2018-12-19T16:15:42.544Z,15.37
2018-12-19T16:18:12.568Z,21.93
2018-12-19T16:20:44.384Z,30.40
2018-12-19T16:23:18.907Z,27.60
2018-12-19T16:25:53.596Z,33.77
2018-12-19T16:28:25.596Z,31.90
2018-12-19T16:30:59.908Z,35.57
2018-12-19T16:33:30.261Z,28.43
2018-12-19T16:36:02.231Z,30.27
2018-12-19T16:38:33.987Z,35.03
2018-12-19T16:41:05.951Z,31.00
2018-12-19T16:43:38.044Z,31.63
2018-12-19T16:46:10.700Z,37.00
2018-12-19T16:48:41.200Z,35.20
2018-12-19T16:51:15.869Z,34.93
2018-12-19T16:53:50.555Z,32.20
2018-12-19T16:56:20.511Z,34.47
2018-12-19T16:58:52.358Z,35.60
2018-12-19T17:01:28.830Z,32.97
2018-12-19T17:03:59.911Z,32.67
2018-12-19T17:06:34.262Z,33.43
2018-12-19T17:09:08.726Z,33.30
2018-12-19T17:11:43.571Z,34.47
2018-12-19T17:14:15.764Z,37.33
2018-12-19T17:16:50.438Z,36.00
2018-12-19T17:19:20.628Z,36.90
2018-12-19T17:21:52.462Z,33.70
2018-12-19T17:24:32.532Z,39.37
2018-12-19T17:27:04.187Z,36.03
2018-12-19T17:29:35.986Z,42.37
2018-12-19T17:47:41.143Z,34.80
2018-12-19T17:50:12.860Z,37.70
2018-12-19T17:52:45.435Z,32.97
2018-12-19T17:55:15.324Z,37.13
2018-12-19T17:57:50.062Z,30.13
2018-12-19T18:00:24.538Z,39.13
2018-12-19T18:02:54.608Z,30.10
2018-12-19T18:05:29.000Z,32.83
2018-12-19T18:08:04.001Z,33.97
2018-12-19T18:10:38.781Z,52.37
2018-12-19T18:13:11.061Z,33.53
2018-12-19T18:15:45.719Z,29.83
2018-12-19T18:18:17.786Z,25.33
2018-12-19T18:20:49.685Z,37.70
2018-12-19T18:23:21.486Z,33.57
2018-12-19T18:25:53.395Z,31.40
2018-12-19T18:28:25.167Z,28.83
2018-12-19T18:30:56.970Z,33.20
2018-12-19T18:33:31.624Z,32.90
2018-12-19T18:36:01.696Z,31.97
2018-12-19T18:38:34.155Z,31.33
2018-12-19T18:41:05.854Z,34.90
2018-12-19T18:43:40.342Z,32.70
2018-12-19T18:46:10.510Z,31.40
2018-12-19T18:48:45.089Z,29.27
2018-12-19T18:51:17.392Z,35.13
2018-12-19T18:53:56.464Z,33.27
2018-12-19T18:56:32.434Z,35.00
2018-12-19T18:59:07.115Z,35.37
2018-12-19T19:01:40.286Z,41.87
2018-12-19T19:04:14.865Z,39.13
2018-12-19T19:07:13.866Z,46.37
2018-12-19T19:09:49.112Z,43.77
2018-12-19T19:12:21.701Z,40.83
2018-12-19T19:14:53.507Z,41.97
2018-12-19T19:17:28.063Z,40.23
2018-12-19T19:20:00.196Z,51.57
2018-12-19T19:22:32.058Z,47.43
2018-12-19T19:25:06.667Z,41.67
2018-12-19T19:27:39.026Z,50.00
2018-12-19T19:30:13.357Z,43.13
2018-12-19T19:32:43.768Z,40.67
2018-12-19T19:35:19.032Z,46.47
2018-12-19T19:40:50.835Z,43.27
2018-12-19T19:43:26.723Z,43.40
2018-12-19T19:45:58.815Z,50.83
2018-12-19T19:48:30.687Z,51.33
2018-12-19T19:51:02.950Z,49.63
2018-12-19T19:53:37.425Z,48.70
2018-12-19T19:56:07.678Z,49.47
2018-12-19T19:58:40.636Z,50.57
2018-12-19T20:01:15.021Z,45.97
2018-12-19T20:03:47.291Z,58.20
2018-12-19T20:06:19.768Z,53.93
2018-12-19T20:08:54.563Z,51.70
2018-12-19T20:11:26.657Z,55.53
2018-12-19T20:14:15.004Z,60.23
2018-12-19T20:16:54.979Z,51.73
2018-12-19T20:19:38.275Z,51.80
2018-12-19T20:22:10.169Z,51.10
2018-12-19T20:24:43.129Z,61.47
2018-12-19T20:27:22.344Z,54.37
2018-12-19T20:30:08.135Z,50.43
2018-12-19T20:32:42.827Z,39.07
2018-12-19T20:35:17.583Z,52.07
2018-12-19T20:37:52.093Z,39.47
2018-12-19T20:40:26.851Z,55.70
2018-12-19T20:42:58.771Z,58.57
2018-12-19T20:45:31.317Z,78.97
2018-12-19T20:48:05.985Z,60.23
2018-12-19T20:50:37.260Z,69.23
2018-12-19T20:53:11.609Z,73.13
2018-12-19T20:55:41.687Z,75.67
2018-12-19T20:58:14.961Z,65.00
2018-12-19T21:00:47.005Z,56.43
2018-12-19T21:03:37.216Z,44.50
2018-12-19T21:06:12.097Z,37.17
2018-12-19T21:08:47.331Z,35.93
2018-12-19T21:11:22.778Z,31.00
2018-12-19T21:13:57.945Z,34.77
2018-12-19T21:16:40.956Z,32.00
2018-12-19T21:19:11.924Z,26.87
2018-12-19T21:21:47.131Z,25.90
2018-12-19T21:24:29.693Z,26.53
2018-12-19T21:27:02.575Z,26.00
2018-12-19T21:29:33.182Z,25.97
2018-12-19T21:32:09.122Z,24.23
2018-12-19T21:34:42.409Z,26.47
2018-12-19T21:37:17.566Z,28.13
2018-12-19T21:39:49.940Z,23.73
2018-12-19T21:42:21.666Z,35.30
2018-12-19T21:44:56.155Z,26.60
2018-12-19T21:47:30.823Z,35.43
2018-12-19T21:50:06.911Z,38.87
2018-12-19T21:52:38.558Z,44.17
2018-12-19T21:55:11.314Z,44.10
2018-12-19T21:57:45.708Z,40.07
2018-12-19T22:00:20.742Z,43.53
2018-12-19T22:02:55.105Z,39.33
2018-12-19T22:05:25.247Z,45.67
2018-12-19T22:07:58.032Z,45.70
2018-12-19T22:10:30.083Z,32.97
2018-12-19T22:13:04.604Z,18.90
2018-12-19T22:15:36.566Z,17.50
2018-12-19T22:18:16.703Z,17.37
2018-12-19T22:20:51.188Z,15.73
2018-12-19T22:23:23.267Z,14.67
2018-12-19T22:25:55.017Z,13.90
2018-12-19T22:28:26.725Z,15.17
2018-12-19T22:31:01.186Z,13.57
2018-12-19T22:33:33.045Z,15.70
2018-12-19T22:36:05.658Z,10.57
2018-12-19T22:38:34.324Z,13.93
2018-12-19T22:41:03.090Z,12.23
2018-12-19T22:43:31.904Z,12.33
2018-12-19T22:46:00.574Z,18.03
2018-12-19T22:48:29.352Z,15.70
2018-12-19T22:50:57.938Z,19.77
2018-12-19T22:53:26.622Z,29.20
2018-12-19T22:55:55.250Z,24.20
2018-12-19T22:58:24.001Z,22.30
2018-12-19T23:00:58.396Z,24.77
2018-12-19T23:06:30.761Z,25.87
2018-12-19T23:08:59.435Z,31.37
